createdAt,value
2019-02-22T00:01:54.860Z,6.73
2019-02-22T00:04:25.698Z,6.77
2019-02-22T00:06:56.683Z,6.76
2019-02-22T00:09:27.488Z,6.73
2019-02-22T00:11:58.364Z,6.70
2019-02-22T00:14:29.495Z,6.66
2019-02-22T00:17:00.551Z,6.71
2019-02-22T00:19:31.423Z,6.78
2019-02-22T00:22:02.339Z,6.69
2019-02-22T00:24:33.226Z,6.68
2019-02-22T00:27:04.158Z,6.71
2019-02-22T00:29:35.036Z,6.76
2019-02-22T00:32:05.941Z,6.72
2019-02-22T00:34:36.996Z,6.73
2019-02-22T00:37:07.915Z,6.80
2019-02-22T00:39:38.792Z,6.90
2019-02-22T00:42:09.615Z,6.93
2019-02-22T00:44:40.410Z,6.93
2019-02-22T00:47:11.320Z,6.92
2019-02-22T00:49:42.196Z,6.84
2019-02-22T00:52:13.771Z,6.85
2019-02-22T00:54:44.676Z,6.84
2019-02-22T00:57:15.681Z,6.84
2019-02-22T00:59:46.507Z,6.93
2019-02-22T01:02:17.294Z,6.98
2019-02-22T01:04:48.577Z,7.02
2019-02-22T01:07:19.383Z,7.09
2019-02-22T01:09:50.259Z,7.26
2019-02-22T01:12:21.249Z,7.31
2019-02-22T01:14:52.126Z,7.36
2019-02-22T01:17:23.022Z,7.32
2019-02-22T01:19:53.818Z,7.31
2019-02-22T01:22:24.811Z,7.23
2019-02-22T01:24:55.797Z,7.13
2019-02-22T01:27:26.573Z,7.10
2019-02-22T01:29:57.970Z,7.16
2019-02-22T01:32:28.874Z,7.15
2019-02-22T01:34:59.789Z,7.23
2019-02-22T01:37:30.792Z,7.20
2019-02-22T01:40:01.708Z,7.20
2019-02-22T01:42:33.633Z,7.10
2019-02-22T01:45:04.645Z,7.20
2019-02-22T01:47:35.429Z,7.14
2019-02-22T01:50:06.413Z,7.13
2019-02-22T01:52:37.251Z,7.12
2019-02-22T01:55:08.121Z,7.12
2019-02-22T01:57:39.448Z,7.11
2019-02-22T02:00:11.428Z,7.11
2019-02-22T02:02:43.028Z,7.16
2019-02-22T02:05:13.974Z,7.19
2019-02-22T02:07:44.983Z,7.19
2019-02-22T02:10:16.075Z,7.19
2019-02-22T02:12:46.845Z,7.18
2019-02-22T02:15:17.768Z,7.09
2019-02-22T02:17:48.518Z,7.13
2019-02-22T02:20:19.480Z,7.20
2019-02-22T02:22:51.483Z,7.27
2019-02-22T02:25:22.266Z,7.09
2019-02-22T02:27:53.347Z,7.14
2019-02-22T02:30:24.155Z,7.16
2019-02-22T02:32:55.211Z,7.18
2019-02-22T02:35:26.112Z,7.12
2019-02-22T02:37:57.406Z,7.03
2019-02-22T02:40:28.411Z,7.05
2019-02-22T02:42:59.303Z,7.04
2019-02-22T02:45:30.072Z,7.04
2019-02-22T02:48:00.972Z,7.02
2019-02-22T02:50:31.847Z,7.01
2019-02-22T02:53:02.769Z,7.02
2019-02-22T02:55:35.063Z,7.04
2019-02-22T02:58:06.043Z,7.06
2019-02-22T03:00:37.207Z,7.07
2019-02-22T03:03:08.046Z,7.08
2019-02-22T03:05:57.857Z,7.15
2019-02-22T03:08:32.483Z,7.13
2019-02-22T03:11:03.232Z,7.12
2019-02-22T03:13:34.198Z,7.22
2019-02-22T03:16:05.330Z,7.28
2019-02-22T03:18:36.146Z,7.29
2019-02-22T03:21:07.133Z,7.30
2019-02-22T03:23:38.027Z,7.29
2019-02-22T03:26:09.192Z,7.25
2019-02-22T03:28:40.095Z,7.26
2019-02-22T03:31:11.342Z,7.25
2019-02-22T03:33:42.296Z,7.22
2019-02-22T03:36:13.089Z,7.22
2019-02-22T03:38:43.851Z,7.23
2019-02-22T03:41:14.751Z,7.21
2019-02-22T03:43:45.625Z,7.19
2019-02-22T03:46:16.539Z,7.09
2019-02-22T03:48:47.514Z,7.08
2019-02-22T03:51:18.379Z,7.08
2019-02-22T03:54:02.860Z,7.06
2019-02-22T03:56:34.352Z,7.08
2019-02-22T03:59:05.666Z,7.05
2019-02-22T04:01:36.630Z,7.09
2019-02-22T04:04:07.508Z,7.09
2019-02-22T04:06:39.500Z,7.03
2019-02-22T04:09:13.443Z,6.96
2019-02-22T04:11:45.979Z,6.93
2019-02-22T04:14:16.878Z,6.87
2019-02-22T04:16:47.848Z,6.82
2019-02-22T04:19:18.642Z,6.82
2019-02-22T04:21:49.824Z,6.82
2019-02-22T04:24:20.611Z,6.77
2019-02-22T04:26:51.440Z,6.57
2019-02-22T04:29:22.454Z,6.51
2019-02-22T04:31:53.418Z,6.53
2019-02-22T04:34:24.255Z,6.61
2019-02-22T04:36:55.244Z,6.64
2019-02-22T04:39:26.038Z,6.64
2019-02-22T04:41:58.295Z,6.61
2019-02-22T04:44:29.350Z,6.57
2019-02-22T04:47:00.209Z,6.63
2019-02-22T04:49:31.086Z,6.65
2019-02-22T04:52:01.874Z,6.67
2019-02-22T04:54:32.773Z,6.65
2019-02-22T04:57:03.743Z,6.64
2019-02-22T04:59:34.681Z,6.63
2019-02-22T05:02:05.628Z,6.59
2019-02-22T05:04:36.807Z,6.56
2019-02-22T05:07:07.600Z,6.60
2019-02-22T05:09:38.655Z,6.62
2019-02-22T05:12:11.192Z,6.65
2019-02-22T05:14:42.215Z,6.69
2019-02-22T05:17:13.807Z,6.69
2019-02-22T05:19:44.692Z,6.64
2019-02-22T05:22:15.480Z,6.62
2019-02-22T05:24:46.459Z,6.55
2019-02-22T05:27:17.294Z,6.53
2019-02-22T05:29:48.544Z,6.44
2019-02-22T05:32:19.334Z,6.24
2019-02-22T05:34:51.260Z,6.08
2019-02-22T05:37:22.044Z,6.06
2019-02-22T05:39:52.945Z,6.13
2019-02-22T05:42:23.821Z,6.19
2019-02-22T05:44:54.657Z,6.09
2019-02-22T05:47:25.431Z,6.00
2019-02-22T05:49:56.331Z,5.92
2019-02-22T05:52:27.197Z,5.96
2019-02-22T05:54:57.995Z,6.06
2019-02-22T05:57:29.059Z,6.18
2019-02-22T06:00:02.293Z,6.25
2019-02-22T06:02:34.094Z,6.27
2019-02-22T06:05:05.140Z,6.31
2019-02-22T06:07:36.604Z,6.27
2019-02-22T06:10:07.627Z,6.37
2019-02-22T06:12:38.807Z,6.45
2019-02-22T06:15:09.688Z,6.43
2019-02-22T06:17:40.684Z,6.48
2019-02-22T06:20:11.696Z,6.51
2019-02-22T06:22:42.573Z,6.59
2019-02-22T06:25:13.355Z,6.65
2019-02-22T06:27:44.232Z,6.67
2019-02-22T06:30:15.121Z,6.73
2019-02-22T06:32:46.165Z,6.74
2019-02-22T06:35:17.118Z,6.75
2019-02-22T06:37:48.170Z,6.78
2019-02-22T06:40:18.984Z,6.85
2019-02-22T06:42:50.915Z,6.84
2019-02-22T06:45:21.892Z,6.84
2019-02-22T06:47:52.869Z,6.87
2019-02-22T06:50:33.332Z,6.84
2019-02-22T06:52:56.175Z,6.72
2019-02-22T06:55:26.981Z,6.80
2019-02-22T06:57:57.856Z,6.84
2019-02-22T07:00:28.756Z,6.85
2019-02-22T07:02:59.633Z,6.92
2019-02-22T07:05:30.609Z,6.98
2019-02-22T07:08:01.624Z,7.01
2019-02-22T07:10:51.375Z,6.98
2019-02-22T07:13:24.406Z,7.08
2019-02-22T07:15:55.051Z,7.13
2019-02-22T07:18:25.859Z,7.14
2019-02-22T07:20:56.743Z,7.14
2019-02-22T07:23:27.737Z,7.08
2019-02-22T07:25:58.620Z,7.10
2019-02-22T07:28:29.487Z,7.16
2019-02-22T07:31:00.294Z,7.21
2019-02-22T07:33:31.161Z,7.31
2019-02-22T07:36:02.048Z,7.38
2019-02-22T07:38:33.153Z,7.50
2019-02-22T07:41:04.053Z,7.46
2019-02-22T07:43:34.938Z,7.55
2019-02-22T07:46:05.861Z,7.66
2019-02-22T07:48:36.696Z,7.77
2019-02-22T07:51:07.483Z,7.84
2019-02-22T07:53:38.442Z,7.89
2019-02-22T07:56:09.273Z,7.92
2019-02-22T07:58:40.447Z,7.97
2019-02-22T08:01:11.340Z,8.00
2019-02-22T08:03:42.240Z,7.99
2019-02-22T08:06:13.017Z,8.01
2019-02-22T08:08:43.973Z,7.98
2019-02-22T08:11:14.805Z,8.13
2019-02-22T08:13:46.183Z,8.22
2019-02-22T08:16:16.972Z,8.12
2019-02-22T08:18:47.879Z,8.20
2019-02-22T08:21:18.656Z,8.11
2019-02-22T08:23:49.546Z,8.09
2019-02-22T08:26:20.432Z,8.05
2019-02-22T08:28:51.480Z,8.03
2019-02-22T08:31:22.393Z,8.13
2019-02-22T08:33:53.401Z,8.23
2019-02-22T08:36:24.188Z,8.29
2019-02-22T08:38:55.077Z,8.32
2019-02-22T08:41:25.860Z,8.48
2019-02-22T08:43:56.746Z,8.59
2019-02-22T08:46:27.525Z,8.73
2019-02-22T08:48:59.186Z,8.85
2019-02-22T08:51:30.123Z,8.94
2019-02-22T08:54:01.014Z,9.07
2019-02-22T08:56:32.820Z,9.21
2019-02-22T08:59:03.899Z,9.24
2019-02-22T09:01:35.792Z,9.20
2019-02-22T09:04:06.792Z,9.17
2019-02-22T09:06:37.584Z,9.31
2019-02-22T09:09:08.467Z,9.40
2019-02-22T09:11:39.783Z,9.48
2019-02-22T09:14:10.860Z,9.58
2019-02-22T09:16:41.753Z,9.77
2019-02-22T09:19:12.795Z,9.87
2019-02-22T09:21:43.748Z,9.99
2019-02-22T09:24:15.106Z,10.04
2019-02-22T09:26:46.018Z,10.23
2019-02-22T09:29:17.010Z,10.08
2019-02-22T09:31:48.086Z,10.17
2019-02-22T09:34:18.983Z,10.18
2019-02-22T09:36:49.773Z,10.31
2019-02-22T09:39:21.022Z,10.51
2019-02-22T09:41:51.972Z,10.46
2019-02-22T09:44:22.962Z,10.48
2019-02-22T09:46:53.631Z,10.46
2019-02-22T09:49:24.527Z,10.52
2019-02-22T09:51:55.327Z,10.66
2019-02-22T09:54:26.302Z,10.71
2019-02-22T09:56:57.177Z,10.76
2019-02-22T09:59:28.213Z,10.83
2019-02-22T10:01:59.073Z,10.87
2019-02-22T10:04:29.994Z,10.93
2019-02-22T10:07:00.845Z,10.90
2019-02-22T10:09:32.286Z,10.90
2019-02-22T10:12:03.347Z,10.92
2019-02-22T10:14:34.202Z,11.01
2019-02-22T10:17:05.173Z,11.04
2019-02-22T10:19:36.450Z,11.12
2019-02-22T10:22:07.408Z,11.23
2019-02-22T10:24:38.301Z,11.42
2019-02-22T10:27:11.938Z,11.59
2019-02-22T10:29:41.772Z,11.64
2019-02-22T10:32:12.684Z,11.62
2019-02-22T10:34:43.581Z,11.74
2019-02-22T10:37:14.365Z,11.86
2019-02-22T10:39:45.456Z,11.88
2019-02-22T10:42:16.227Z,11.91
2019-02-22T10:44:47.121Z,11.89
2019-02-22T10:47:18.009Z,11.91
2019-02-22T10:49:48.893Z,11.87
2019-02-22T10:52:19.587Z,11.86
2019-02-22T10:54:51.497Z,12.07
2019-02-22T10:57:22.373Z,12.27
2019-02-22T10:59:54.950Z,12.42
2019-02-22T11:02:25.801Z,12.49
2019-02-22T11:04:56.860Z,12.73
2019-02-22T11:07:27.656Z,12.75
2019-02-22T11:09:58.836Z,12.84
2019-02-22T11:12:29.770Z,12.82
2019-02-22T11:15:01.021Z,13.03
2019-02-22T11:17:32.027Z,13.07
2019-02-22T11:20:02.946Z,12.86
2019-02-22T11:22:34.129Z,12.77
2019-02-22T11:25:05.822Z,12.80
2019-02-22T11:27:36.721Z,12.85
2019-02-22T11:30:08.880Z,12.81
2019-02-22T11:32:39.929Z,12.82
2019-02-22T11:35:10.819Z,12.85
2019-02-22T11:37:41.893Z,13.00
2019-02-22T11:40:13.105Z,13.13
2019-02-22T11:42:43.881Z,13.03
2019-02-22T11:45:14.981Z,13.09
2019-02-22T11:47:45.859Z,13.32
2019-02-22T11:50:16.798Z,13.31
2019-02-22T11:52:47.646Z,13.54
2019-02-22T11:55:19.105Z,13.34
2019-02-22T11:57:50.101Z,13.28
2019-02-22T12:00:22.262Z,13.32
2019-02-22T12:02:53.249Z,13.31
2019-02-22T12:05:25.041Z,13.46
2019-02-22T12:07:55.937Z,13.49
2019-02-22T12:10:27.008Z,13.55
2019-02-22T12:12:57.901Z,13.28
2019-02-22T12:15:31.336Z,13.36
2019-02-22T12:18:01.537Z,13.43
2019-02-22T12:20:32.429Z,13.37
2019-02-22T12:23:03.213Z,13.32
2019-02-22T12:25:34.181Z,13.53
2019-02-22T12:28:05.072Z,13.59
2019-02-22T12:30:36.083Z,13.37
2019-02-22T12:33:06.966Z,13.44
2019-02-22T12:35:38.585Z,13.45
2019-02-22T12:38:09.438Z,13.61
2019-02-22T12:40:40.445Z,13.64
2019-02-22T12:43:11.221Z,13.65
2019-02-22T12:45:42.318Z,13.57
2019-02-22T12:48:13.097Z,13.51
2019-02-22T12:50:44.017Z,13.49
2019-02-22T12:53:14.884Z,13.40
2019-02-22T12:55:45.824Z,13.55
2019-02-22T12:58:16.700Z,13.74
2019-02-22T13:00:47.589Z,13.95
2019-02-22T13:03:18.515Z,13.98
2019-02-22T13:05:49.261Z,13.99
2019-02-22T13:08:20.572Z,14.04
2019-02-22T13:10:51.357Z,13.94
2019-02-22T13:13:22.245Z,13.69
2019-02-22T13:15:53.112Z,13.76
2019-02-22T13:18:24.090Z,13.60
2019-02-22T13:20:54.893Z,13.71
2019-02-22T13:23:25.831Z,13.66
2019-02-22T13:25:56.783Z,13.68
2019-02-22T13:28:27.676Z,13.79
2019-02-22T13:30:58.645Z,13.80
2019-02-22T13:33:29.522Z,13.80
2019-02-22T13:36:00.380Z,13.71
2019-02-22T13:38:31.145Z,13.68
2019-02-22T13:41:02.230Z,13.73
2019-02-22T13:43:33.136Z,13.72
2019-02-22T13:46:04.485Z,13.80
2019-02-22T13:48:35.392Z,13.80
2019-02-22T13:51:07.289Z,13.85
2019-02-22T13:53:38.218Z,13.88
2019-02-22T13:56:09.341Z,13.88
2019-02-22T13:58:40.203Z,14.02
2019-02-22T14:01:11.444Z,13.93
2019-02-22T14:03:42.400Z,13.92
2019-02-22T14:06:13.408Z,13.88
2019-02-22T14:08:44.383Z,13.80
2019-02-22T14:11:16.547Z,13.83
2019-02-22T14:13:47.518Z,13.85
2019-02-22T14:16:18.367Z,13.97
2019-02-22T14:18:49.249Z,14.00
2019-02-22T14:21:20.285Z,13.97
2019-02-22T14:23:51.235Z,13.86
2019-02-22T14:26:22.130Z,13.92
2019-02-22T14:28:52.905Z,13.90
2019-02-22T14:31:23.801Z,13.99
2019-02-22T14:33:54.574Z,14.00
2019-02-22T14:36:25.542Z,14.07
2019-02-22T14:38:56.356Z,14.15
2019-02-22T14:41:28.037Z,14.11
2019-02-22T14:43:59.162Z,14.13
2019-02-22T14:46:30.042Z,14.23
2019-02-22T14:49:00.818Z,14.28
2019-02-22T14:51:31.674Z,14.31
2019-02-22T14:54:02.489Z,14.33
2019-02-22T14:56:33.474Z,14.25
2019-02-22T14:59:04.385Z,14.09
2019-02-22T15:01:35.745Z,14.05
2019-02-22T15:04:06.547Z,14.14
2019-02-22T15:06:40.334Z,14.13
2019-02-22T15:09:10.985Z,14.21
2019-02-22T15:11:42.362Z,14.03
2019-02-22T15:14:14.214Z,14.01
2019-02-22T15:17:13.165Z,14.04
2019-02-22T15:19:44.043Z,13.96
2019-02-22T15:22:15.020Z,13.89
2019-02-22T15:24:45.693Z,13.87
2019-02-22T15:27:16.598Z,13.85
2019-02-22T15:29:47.392Z,13.81
2019-02-22T15:32:18.361Z,13.79
2019-02-22T15:34:49.161Z,13.74
2019-02-22T15:37:21.142Z,13.74
2019-02-22T15:39:51.979Z,13.64
2019-02-22T15:42:22.941Z,13.60
2019-02-22T15:44:53.528Z,13.61
2019-02-22T15:47:24.520Z,13.62
2019-02-22T15:49:55.292Z,13.54
2019-02-22T15:52:26.181Z,13.49
2019-02-22T15:54:56.976Z,13.47
2019-02-22T15:57:28.901Z,13.47
2019-02-22T15:59:59.789Z,13.42
2019-02-22T16:02:30.677Z,13.38
2019-02-22T16:05:09.426Z,13.38
2019-02-22T16:07:44.806Z,13.36
2019-02-22T16:10:14.574Z,13.24
2019-02-22T16:12:45.754Z,13.24
2019-02-22T16:15:17.981Z,13.15
2019-02-22T16:17:48.876Z,13.05
2019-02-22T16:20:19.813Z,13.04
2019-02-22T16:22:51.639Z,13.01
2019-02-22T16:25:22.668Z,12.92
2019-02-22T16:27:53.668Z,12.87
2019-02-22T16:30:25.891Z,12.80
2019-02-22T16:32:56.755Z,12.73
2019-02-22T16:35:27.745Z,12.65
2019-02-22T16:37:59.350Z,12.63
2019-02-22T16:40:30.139Z,12.54
2019-02-22T16:43:01.122Z,12.49
2019-02-22T16:45:31.936Z,12.43
2019-02-22T16:48:02.809Z,12.39
2019-02-22T16:50:33.708Z,12.43
2019-02-22T16:53:05.362Z,12.41
2019-02-22T16:55:36.192Z,12.26
2019-02-22T16:58:07.175Z,12.26
2019-02-22T17:00:38.068Z,12.26
2019-02-22T17:03:08.961Z,12.21
2019-02-22T17:05:40.551Z,12.19
2019-02-22T17:08:11.565Z,12.08
2019-02-22T17:10:42.545Z,12.05
2019-02-22T17:13:14.567Z,12.06
2019-02-22T17:15:45.344Z,11.97
2019-02-22T17:18:16.609Z,11.86
2019-02-22T17:20:47.617Z,11.86
2019-02-22T17:23:18.758Z,11.80
2019-02-22T17:25:49.610Z,11.78
2019-02-22T17:28:20.501Z,11.72
2019-02-22T17:30:51.372Z,11.69
2019-02-22T17:33:22.518Z,11.61
2019-02-22T17:35:53.467Z,11.59
2019-02-22T17:38:24.352Z,11.60
2019-02-22T17:40:55.142Z,11.55
2019-02-22T17:43:26.307Z,11.57
2019-02-22T17:45:57.109Z,11.45
2019-02-22T17:48:28.105Z,11.40
2019-02-22T17:50:58.881Z,11.35
2019-02-22T17:53:29.682Z,11.33
2019-02-22T17:56:00.673Z,11.30
2019-02-22T17:58:33.699Z,11.24
2019-02-22T18:01:05.331Z,11.10
2019-02-22T18:03:37.281Z,11.00
2019-02-22T18:06:08.109Z,10.92
2019-02-22T18:08:38.992Z,10.87
2019-02-22T18:11:09.867Z,10.81
2019-02-22T18:13:41.253Z,10.73
2019-02-22T18:16:12.069Z,10.69
2019-02-22T18:18:42.960Z,10.65
2019-02-22T18:21:13.740Z,10.58
2019-02-22T18:23:44.656Z,10.55
2019-02-22T18:26:15.602Z,10.40
2019-02-22T18:28:46.506Z,10.35
2019-02-22T18:31:17.294Z,10.29
2019-02-22T18:33:48.083Z,10.26
2019-02-22T18:36:18.847Z,10.24
2019-02-22T18:38:50.788Z,10.23
2019-02-22T18:41:21.561Z,10.21
2019-02-22T18:43:52.616Z,10.16
2019-02-22T18:46:23.422Z,10.07
2019-02-22T18:48:54.388Z,9.94
2019-02-22T18:51:25.317Z,9.77
2019-02-22T18:53:56.189Z,9.62
2019-02-22T18:56:26.987Z,9.56
2019-02-22T18:58:58.217Z,9.54
2019-02-22T19:01:29.064Z,9.49
2019-02-22T19:03:59.952Z,9.42
2019-02-22T19:06:30.842Z,9.50
2019-02-22T19:09:01.734Z,9.45
2019-02-22T19:11:34.137Z,9.42
2019-02-22T19:14:05.242Z,9.23
2019-02-22T19:16:36.121Z,8.94
2019-02-22T19:19:07.490Z,8.84
2019-02-22T19:21:38.521Z,8.63
2019-02-22T19:24:09.489Z,8.54
2019-02-22T19:26:41.318Z,8.45
2019-02-22T19:29:12.641Z,8.43
2019-02-22T19:31:43.514Z,8.38
2019-02-22T19:34:15.311Z,8.31
2019-02-22T19:36:46.203Z,8.20
2019-02-22T19:39:17.095Z,8.21
2019-02-22T19:41:48.061Z,8.24
2019-02-22T19:44:18.962Z,8.14
2019-02-22T19:46:49.841Z,8.04
2019-02-22T19:49:20.927Z,8.07
2019-02-22T19:51:51.631Z,8.18
2019-02-22T19:54:23.067Z,8.24
2019-02-22T19:56:53.905Z,8.35
2019-02-22T19:59:24.804Z,8.31
2019-02-22T20:01:55.793Z,8.23
2019-02-22T20:04:26.683Z,8.11
2019-02-22T20:06:59.939Z,7.93
2019-02-22T20:09:30.235Z,7.87
2019-02-22T20:12:01.197Z,7.83
2019-02-22T20:14:32.176Z,7.88
2019-02-22T20:17:02.961Z,7.83
2019-02-22T20:19:33.849Z,7.90
2019-02-22T20:22:04.640Z,7.96
2019-02-22T20:24:35.500Z,8.01
2019-02-22T20:27:06.536Z,8.18
2019-02-22T20:29:37.437Z,8.17
2019-02-22T20:32:09.464Z,8.15
2019-02-22T20:34:40.331Z,8.06
2019-02-22T20:37:11.314Z,8.05
2019-02-22T20:39:42.213Z,8.00
2019-02-22T20:42:12.833Z,7.96
2019-02-22T20:44:43.538Z,7.95
2019-02-22T20:47:14.652Z,7.96
2019-02-22T20:49:45.475Z,7.92
2019-02-22T20:52:16.360Z,7.89
2019-02-22T20:54:47.350Z,7.92
2019-02-22T20:57:18.682Z,7.93
2019-02-22T20:59:49.521Z,7.79
2019-02-22T21:02:20.677Z,7.77
2019-02-22T21:04:51.720Z,7.79
2019-02-22T21:07:22.749Z,7.73
2019-02-22T21:09:53.636Z,7.66
2019-02-22T21:12:24.661Z,7.67
2019-02-22T21:14:55.560Z,7.57
2019-02-22T21:17:26.646Z,7.66
2019-02-22T21:19:57.451Z,7.65
2019-02-22T21:22:28.437Z,7.59
2019-02-22T21:24:59.221Z,7.61
2019-02-22T21:27:30.223Z,7.59
2019-02-22T21:30:00.984Z,7.57
2019-02-22T21:32:32.174Z,7.57
2019-02-22T21:35:03.149Z,7.60
2019-02-22T21:37:34.055Z,7.61
2019-02-22T21:40:04.938Z,7.57
2019-02-22T21:42:35.795Z,7.52
2019-02-22T21:45:07.061Z,7.41
2019-02-22T21:47:39.418Z,7.48
2019-02-22T21:50:13.223Z,7.37
2019-02-22T21:52:44.056Z,7.32
2019-02-22T21:55:14.947Z,7.36
2019-02-22T21:57:45.920Z,7.28
2019-02-22T22:00:18.243Z,7.27
2019-02-22T22:02:49.551Z,7.25
2019-02-22T22:05:20.630Z,7.29
2019-02-22T22:07:51.421Z,7.29
2019-02-22T22:10:22.341Z,7.20
2019-02-22T22:12:53.090Z,7.18
2019-02-22T22:15:24.063Z,7.18
2019-02-22T22:17:54.875Z,7.14
2019-02-22T22:20:25.771Z,7.16
2019-02-22T22:22:56.651Z,7.17
2019-02-22T22:25:27.534Z,7.14
2019-02-22T22:27:58.406Z,7.05
2019-02-22T22:30:29.294Z,7.09
2019-02-22T22:33:00.085Z,7.14
2019-02-22T22:35:31.351Z,7.09
2019-02-22T22:38:02.163Z,7.09
2019-02-22T22:40:33.147Z,7.14
2019-02-22T22:43:04.058Z,7.12
2019-02-22T22:45:35.025Z,7.10
2019-02-22T22:48:06.030Z,7.07
2019-02-22T22:50:37.198Z,7.04
2019-02-22T22:53:07.998Z,7.05
2019-02-22T22:55:39.455Z,6.99
2019-02-22T22:58:10.300Z,6.99
2019-02-22T23:01:13.385Z,6.96
2019-02-22T23:03:44.527Z,6.95
2019-02-22T23:06:16.694Z,6.97
2019-02-22T23:08:47.750Z,6.97
2019-02-22T23:11:18.946Z,7.01
2019-02-22T23:13:49.812Z,7.08
2019-02-22T23:16:20.694Z,7.12
2019-02-22T23:19:01.352Z,7.06
2019-02-22T23:21:24.255Z,7.09
2019-02-22T23:23:55.223Z,7.05
2019-02-22T23:26:26.216Z,6.99
2019-02-22T23:28:57.010Z,6.98
2019-02-22T23:31:27.871Z,6.99
2019-02-22T23:33:58.657Z,7.02
2019-02-22T23:36:30.282Z,7.02
2019-02-22T23:39:01.043Z,7.02
2019-02-22T23:41:33.570Z,7.04
2019-02-22T23:44:04.476Z,6.96
2019-02-22T23:46:35.750Z,6.89
2019-02-22T23:49:13.137Z,6.88
2019-02-22T23:51:39.223Z,6.84
2019-02-22T23:54:09.982Z,6.83
2019-02-22T23:56:40.847Z,6.78
2019-02-22T23:59:11.738Z,6.71
